createdAt,value
2023-11-20T00:01:26.172Z,85.71
2023-11-20T00:03:54.881Z,85.80
2023-11-20T00:06:23.023Z,85.74
2023-11-20T00:08:51.025Z,85.81
2023-11-20T00:11:19.046Z,85.78
2023-11-20T00:13:47.252Z,85.77
2023-11-20T00:16:15.358Z,85.68
2023-11-20T00:18:43.394Z,85.75
2023-11-20T00:21:11.556Z,85.79
2023-11-20T00:23:40.171Z,85.77
2023-11-20T00:26:15.658Z,85.82
2023-11-20T00:28:43.759Z,85.85
2023-11-20T00:31:18.901Z,85.68
2023-11-20T00:33:46.872Z,85.71
2023-11-20T00:36:14.885Z,85.87
2023-11-20T00:38:43.142Z,85.78
2023-11-20T00:41:11.197Z,85.91
2023-11-20T00:43:40.744Z,85.96
2023-11-20T00:46:09.108Z,85.99
2023-11-20T00:48:37.280Z,86.16
2023-11-20T00:51:05.612Z,86.07
2023-11-20T00:53:33.549Z,86.05
2023-11-20T00:56:01.528Z,85.96
2023-11-20T00:58:29.536Z,85.97
2023-11-20T01:00:59.480Z,85.81
2023-11-20T01:03:28.620Z,85.82
2023-11-20T01:05:56.922Z,85.89
2023-11-20T01:08:24.913Z,85.94
2023-11-20T01:10:52.920Z,85.75
2023-11-20T01:13:20.841Z,85.80
2023-11-20T01:15:48.909Z,85.85
2023-11-20T01:18:17.437Z,85.90
2023-11-20T01:20:46.157Z,85.95
2023-11-20T01:23:14.078Z,85.96
2023-11-20T01:25:42.211Z,85.86
2023-11-20T01:28:10.372Z,85.78
2023-11-20T01:30:38.365Z,85.80
2023-11-20T01:33:06.423Z,85.82
2023-11-20T01:35:34.419Z,85.86
2023-11-20T01:38:02.495Z,85.75
2023-11-20T01:40:30.478Z,85.71
2023-11-20T01:42:58.579Z,85.70
2023-11-20T01:45:26.544Z,85.77
2023-11-20T01:47:54.694Z,85.71
2023-11-20T01:50:22.794Z,85.69
2023-11-20T01:52:51.925Z,85.71
2023-11-20T01:55:21.513Z,85.65
2023-11-20T01:57:51.672Z,85.76
2023-11-20T02:00:20.891Z,85.63
2023-11-20T02:02:51.466Z,85.79
2023-11-20T02:05:20.893Z,85.91
2023-11-20T02:07:48.902Z,85.91
2023-11-20T02:10:19.028Z,86.12
2023-11-20T02:12:47.387Z,86.08
2023-11-20T02:15:15.732Z,86.07
2023-11-20T02:17:43.800Z,85.97
2023-11-20T02:20:12.114Z,86.03
2023-11-20T02:22:40.141Z,85.99
2023-11-20T02:25:09.035Z,86.09
2023-11-20T02:28:17.102Z,86.01
2023-11-20T02:30:45.394Z,85.98
2023-11-20T02:33:13.635Z,86.06
2023-11-20T02:35:41.728Z,85.99
2023-11-20T02:38:09.695Z,85.99
2023-11-20T02:40:38.022Z,85.98
2023-11-20T02:43:06.879Z,86.08
2023-11-20T02:45:36.533Z,86.08
2023-11-20T02:48:05.362Z,86.09
2023-11-20T02:50:35.479Z,86.02
2023-11-20T02:53:03.505Z,86.03
2023-11-20T02:55:31.875Z,85.98
2023-11-20T02:58:01.489Z,86.07
2023-11-20T03:00:29.512Z,85.98
2023-11-20T03:02:57.550Z,85.92
2023-11-20T03:05:25.715Z,85.90
2023-11-20T03:07:53.736Z,86.00
2023-11-20T03:10:22.273Z,86.17
2023-11-20T03:12:50.315Z,86.22
2023-11-20T03:15:18.346Z,86.24
2023-11-20T03:17:46.381Z,86.25
2023-11-20T03:20:14.564Z,86.30
2023-11-20T03:22:42.619Z,86.34
2023-11-20T03:25:10.957Z,86.37
2023-11-20T03:27:40.509Z,86.28
2023-11-20T03:30:10.509Z,86.24
2023-11-20T03:32:38.541Z,86.16
2023-11-20T03:35:06.897Z,86.07
2023-11-20T03:37:35.575Z,86.04
2023-11-20T03:40:05.280Z,86.02
2023-11-20T03:42:33.339Z,86.10
2023-11-20T03:45:02.285Z,86.12
2023-11-20T03:47:30.262Z,86.23
2023-11-20T03:49:58.245Z,86.21
2023-11-20T03:52:27.666Z,86.22
2023-11-20T03:54:55.780Z,86.05
2023-11-20T03:57:23.999Z,86.22
2023-11-20T03:59:52.001Z,86.13
2023-11-20T04:02:20.354Z,86.16
2023-11-20T04:04:48.405Z,86.11
2023-11-20T04:07:16.453Z,86.23
2023-11-20T04:09:44.440Z,86.21
2023-11-20T04:12:12.493Z,86.15
2023-11-20T04:14:40.518Z,86.26
2023-11-20T04:17:09.112Z,86.32
2023-11-20T04:19:37.567Z,86.38
2023-11-20T04:22:08.736Z,86.32
2023-11-20T04:24:37.046Z,86.40
2023-11-20T04:27:05.372Z,86.46
2023-11-20T04:29:33.238Z,86.45
2023-11-20T04:32:01.240Z,86.38
2023-11-20T04:34:29.257Z,86.34
2023-11-20T04:36:57.285Z,86.44
2023-11-20T04:39:25.235Z,86.28
2023-11-20T04:41:53.271Z,86.25
2023-11-20T04:44:21.269Z,86.41
2023-11-20T04:46:49.246Z,86.41
2023-11-20T04:49:17.217Z,86.30
2023-11-20T04:51:45.280Z,86.49
2023-11-20T04:54:13.352Z,86.48
2023-11-20T04:56:41.450Z,86.49
2023-11-20T04:59:10.469Z,86.66
2023-11-20T05:01:38.665Z,86.55
2023-11-20T05:04:07.085Z,86.65
2023-11-20T05:06:35.099Z,86.71
2023-11-20T05:09:03.422Z,86.70
2023-11-20T05:11:31.459Z,86.59
2023-11-20T05:14:00.834Z,86.57
2023-11-20T05:16:30.141Z,86.60
2023-11-20T05:18:58.306Z,86.71
2023-11-20T05:21:26.310Z,86.68
2023-11-20T05:23:54.284Z,86.69
2023-11-20T05:26:22.415Z,86.71
2023-11-20T05:28:52.403Z,86.78
2023-11-20T05:31:20.446Z,86.68
2023-11-20T05:33:48.962Z,86.68
2023-11-20T05:36:17.084Z,86.70
2023-11-20T05:38:45.080Z,86.74
2023-11-20T05:41:13.196Z,86.78
2023-11-20T05:43:41.905Z,86.83
2023-11-20T05:46:09.977Z,86.76
2023-11-20T05:48:38.529Z,86.65
2023-11-20T05:51:06.636Z,86.70
2023-11-20T05:53:34.733Z,86.84
2023-11-20T05:56:03.233Z,86.75
2023-11-20T05:58:31.369Z,86.74
2023-11-20T06:00:59.840Z,86.88
2023-11-20T06:03:27.996Z,86.97
2023-11-20T06:05:56.056Z,86.94
2023-11-20T06:08:24.586Z,86.96
2023-11-20T06:10:52.508Z,86.78
2023-11-20T06:13:20.632Z,87.06
2023-11-20T06:15:48.638Z,86.99
2023-11-20T06:18:16.661Z,87.04
2023-11-20T06:20:44.883Z,87.11
2023-11-20T06:23:13.668Z,87.07
2023-11-20T06:25:41.628Z,87.07
2023-11-20T06:28:09.593Z,87.05
2023-11-20T06:30:37.802Z,87.22
2023-11-20T06:33:06.258Z,87.25
2023-11-20T06:35:34.216Z,87.25
2023-11-20T06:38:02.156Z,87.18
2023-11-20T06:40:30.311Z,87.86
2023-11-20T06:42:58.748Z,90.34
2023-11-20T06:45:26.717Z,91.10
2023-11-20T06:47:54.704Z,89.67
2023-11-20T06:50:22.780Z,87.32
2023-11-20T06:52:53.380Z,86.77
2023-11-20T06:55:22.849Z,85.24
2023-11-20T06:57:51.127Z,85.56
2023-11-20T07:00:20.002Z,85.41
2023-11-20T07:02:48.649Z,85.02
2023-11-20T07:05:17.856Z,85.20
2023-11-20T07:07:55.117Z,85.39
2023-11-20T07:10:24.743Z,85.62
2023-11-20T07:12:58.052Z,85.84
2023-11-20T07:15:26.255Z,86.10
2023-11-20T07:17:54.360Z,86.35
2023-11-20T07:20:23.047Z,86.35
2023-11-20T07:22:51.262Z,86.49
2023-11-20T07:25:19.309Z,86.58
2023-11-20T07:27:47.315Z,86.72
2023-11-20T07:30:16.172Z,86.75
2023-11-20T07:32:45.235Z,86.89
2023-11-20T07:35:14.707Z,86.94
2023-11-20T07:37:43.588Z,86.94
2023-11-20T07:40:13.235Z,87.08
2023-11-20T07:42:42.223Z,87.01
2023-11-20T07:45:12.462Z,87.15
2023-11-20T07:47:41.801Z,87.07
2023-11-20T07:50:12.259Z,87.23
2023-11-20T07:52:40.571Z,87.11
2023-11-20T07:55:09.759Z,87.13
2023-11-20T07:57:38.131Z,87.25
2023-11-20T08:00:07.200Z,87.09
2023-11-20T08:02:35.441Z,87.05
2023-11-20T08:05:06.627Z,87.05
2023-11-20T08:07:35.000Z,86.99
2023-11-20T08:10:06.610Z,86.92
2023-11-20T08:12:35.986Z,86.96
2023-11-20T08:15:07.044Z,86.89
2023-11-20T08:17:36.028Z,86.74
2023-11-20T08:20:07.777Z,86.75
2023-11-20T08:22:37.221Z,86.77
2023-11-20T08:25:05.897Z,86.86
2023-11-20T08:27:33.957Z,86.72
2023-11-20T08:30:02.363Z,86.70
2023-11-20T08:32:30.389Z,86.62
2023-11-20T08:34:58.588Z,86.62
2023-11-20T08:37:26.618Z,86.60
2023-11-20T08:39:54.542Z,86.66
2023-11-20T08:42:23.677Z,86.54
2023-11-20T08:44:51.683Z,86.54
2023-11-20T08:47:19.803Z,86.50
2023-11-20T08:49:47.980Z,86.47
2023-11-20T08:52:16.416Z,86.44
2023-11-20T08:54:44.495Z,86.32
2023-11-20T08:57:12.474Z,86.42
2023-11-20T08:59:40.505Z,86.36
2023-11-20T09:02:08.549Z,86.49
2023-11-20T09:04:36.577Z,86.32
2023-11-20T09:07:04.957Z,86.38
2023-11-20T09:09:32.956Z,86.40
2023-11-20T09:12:02.203Z,86.34
2023-11-20T09:14:30.380Z,86.36
2023-11-20T09:16:59.000Z,86.26
2023-11-20T09:19:27.660Z,86.29
2023-11-20T09:21:55.677Z,86.25
2023-11-20T09:24:23.692Z,86.22
2023-11-20T09:26:51.642Z,86.20
2023-11-20T09:29:19.709Z,86.34
2023-11-20T09:31:49.353Z,86.38
2023-11-20T09:34:20.107Z,86.29
2023-11-20T09:36:48.202Z,86.24
2023-11-20T09:39:16.243Z,86.17
2023-11-20T09:41:44.535Z,86.10
2023-11-20T09:44:13.807Z,85.94
2023-11-20T09:46:45.884Z,85.97
2023-11-20T09:49:24.150Z,85.96
2023-11-20T09:51:58.057Z,85.83
2023-11-20T09:54:26.612Z,85.26
2023-11-20T09:56:55.101Z,85.57
2023-11-20T09:59:23.148Z,85.71
2023-11-20T10:01:53.230Z,85.55
2023-11-20T10:04:25.553Z,85.54
2023-11-20T10:06:56.194Z,85.69
2023-11-20T10:09:25.341Z,85.61
2023-11-20T10:11:57.976Z,85.49
2023-11-20T10:14:25.952Z,85.58
2023-11-20T10:16:55.083Z,85.62
2023-11-20T10:19:23.487Z,85.12
2023-11-20T10:21:52.641Z,85.21
2023-11-20T10:24:20.687Z,85.33
2023-11-20T10:26:48.813Z,85.30
2023-11-20T10:29:17.430Z,85.16
2023-11-20T10:31:48.144Z,84.58
2023-11-20T10:34:19.192Z,84.87
2023-11-20T10:37:06.006Z,84.85
2023-11-20T10:39:34.247Z,84.94
2023-11-20T10:42:03.071Z,84.80
2023-11-20T10:44:33.061Z,84.62
2023-11-20T10:47:01.286Z,84.52
2023-11-20T10:49:37.059Z,84.88
2023-11-20T10:52:16.931Z,84.96
2023-11-20T10:54:49.725Z,84.93
2023-11-20T10:57:19.815Z,84.83
2023-11-20T10:59:48.676Z,84.55
2023-11-20T11:02:21.591Z,84.08
2023-11-20T11:04:55.922Z,84.27
2023-11-20T11:07:26.281Z,84.39
2023-11-20T11:09:54.807Z,83.69
2023-11-20T11:12:33.142Z,83.39
2023-11-20T11:15:01.189Z,83.93
2023-11-20T11:17:34.901Z,84.16
2023-11-20T11:20:11.209Z,83.95
2023-11-20T11:22:45.286Z,84.04
2023-11-20T11:25:15.464Z,83.59
2023-11-20T11:27:58.070Z,83.47
2023-11-20T11:30:32.269Z,83.87
2023-11-20T11:33:34.034Z,84.01
2023-11-20T11:36:10.326Z,83.99
2023-11-20T11:38:42.457Z,83.49
2023-11-20T11:41:39.066Z,83.33
2023-11-20T11:44:23.433Z,83.43
2023-11-20T11:46:52.082Z,83.39
2023-11-20T11:49:24.624Z,83.57
2023-11-20T11:52:05.148Z,83.45
2023-11-20T11:54:33.706Z,83.68
2023-11-20T11:57:14.495Z,83.36
2023-11-20T11:59:47.067Z,83.70
2023-11-20T12:02:20.015Z,83.86
2023-11-20T12:04:51.321Z,83.93
2023-11-20T12:07:37.879Z,83.75
2023-11-20T12:10:13.502Z,83.67
2023-11-20T12:12:49.571Z,83.63
2023-11-20T12:15:37.501Z,83.50
2023-11-20T12:18:22.609Z,83.66
2023-11-20T12:20:56.765Z,83.71
2023-11-20T12:23:24.666Z,83.56
2023-11-20T12:25:57.624Z,83.53
2023-11-20T12:28:29.115Z,83.35
2023-11-20T12:30:57.086Z,83.12
2023-11-20T12:33:25.077Z,83.43
2023-11-20T12:35:56.936Z,83.57
2023-11-20T12:38:25.612Z,83.55
2023-11-20T12:40:55.735Z,83.43
2023-11-20T12:43:25.680Z,83.31
2023-11-20T12:45:53.969Z,83.40
2023-11-20T12:48:22.209Z,83.47
2023-11-20T12:50:51.124Z,83.41
2023-11-20T12:53:21.125Z,83.59
2023-11-20T12:55:54.523Z,83.63
2023-11-20T12:58:23.279Z,83.45
2023-11-20T13:00:54.490Z,83.47
2023-11-20T13:03:23.382Z,83.55
2023-11-20T13:05:54.932Z,83.53
2023-11-20T13:08:25.253Z,83.44
2023-11-20T13:11:02.979Z,83.50
2023-11-20T13:13:36.625Z,83.40
2023-11-20T13:16:17.490Z,83.18
2023-11-20T13:18:51.379Z,83.17
2023-11-20T13:21:27.662Z,83.03
2023-11-20T13:24:01.193Z,83.26
2023-11-20T13:26:29.889Z,83.49
2023-11-20T13:28:59.201Z,83.59
2023-11-20T13:31:36.152Z,83.63
2023-11-20T13:34:08.391Z,83.71
2023-11-20T13:36:39.396Z,83.72
2023-11-20T13:39:09.605Z,83.73
2023-11-20T13:41:38.459Z,83.69
2023-11-20T13:44:06.810Z,83.66
2023-11-20T13:46:38.403Z,83.76
2023-11-20T13:49:06.905Z,83.74
2023-11-20T13:51:35.027Z,83.39
2023-11-20T13:54:02.948Z,83.49
2023-11-20T13:56:31.559Z,83.50
2023-11-20T13:59:00.721Z,83.56
2023-11-20T14:01:29.335Z,83.51
2023-11-20T14:03:58.994Z,83.64
2023-11-20T14:06:27.189Z,83.63
2023-11-20T14:08:56.759Z,83.67
2023-11-20T14:11:24.796Z,83.75
2023-11-20T14:13:53.748Z,83.62
2023-11-20T14:16:24.541Z,83.67
2023-11-20T14:18:53.107Z,83.74
2023-11-20T14:21:21.922Z,83.78
2023-11-20T14:23:50.132Z,83.79
2023-11-20T14:26:29.732Z,83.75
2023-11-20T14:29:04.507Z,83.57
2023-11-20T14:31:32.915Z,83.55
2023-11-20T14:34:01.590Z,83.72
2023-11-20T14:36:30.057Z,83.97
2023-11-20T14:38:59.656Z,84.01
2023-11-20T14:41:28.336Z,84.13
2023-11-20T14:43:56.377Z,84.17
2023-11-20T14:46:24.401Z,84.25
2023-11-20T14:48:52.533Z,84.24
2023-11-20T14:51:24.153Z,84.26
2023-11-20T14:53:54.888Z,84.14
2023-11-20T14:56:23.316Z,84.00
2023-11-20T14:58:51.841Z,84.20
2023-11-20T15:01:21.370Z,84.48
2023-11-20T15:03:49.993Z,84.58
2023-11-20T15:06:19.239Z,84.65
2023-11-20T15:08:47.203Z,84.71
2023-11-20T15:11:16.324Z,84.74
2023-11-20T15:13:44.996Z,84.82
2023-11-20T15:16:13.321Z,84.79
2023-11-20T15:18:41.459Z,84.60
2023-11-20T15:21:09.500Z,84.66
2023-11-20T15:23:37.498Z,84.69
2023-11-20T15:26:05.766Z,84.67
2023-11-20T15:28:33.845Z,84.72
2023-11-20T15:31:02.353Z,84.63
2023-11-20T15:33:30.368Z,84.41
2023-11-20T15:35:58.376Z,84.09
2023-11-20T15:38:26.329Z,83.92
2023-11-20T15:40:54.654Z,83.95
2023-11-20T15:43:22.722Z,84.03
2023-11-20T15:45:54.365Z,83.83
2023-11-20T15:48:24.430Z,83.99
2023-11-20T15:50:55.618Z,83.94
2023-11-20T15:53:23.977Z,83.90
2023-11-20T15:55:52.095Z,83.80
2023-11-20T15:58:21.783Z,83.65
2023-11-20T16:00:51.044Z,83.80
2023-11-20T16:03:20.434Z,83.78
2023-11-20T16:05:49.367Z,83.77
2023-11-20T16:08:18.158Z,83.36
2023-11-20T16:10:48.672Z,83.38
2023-11-20T16:13:17.900Z,83.50
2023-11-20T16:15:47.152Z,83.25
2023-11-20T16:18:16.472Z,83.14
2023-11-20T16:20:48.649Z,83.27
2023-11-20T16:23:17.713Z,83.49
2023-11-20T16:25:48.574Z,83.55
2023-11-20T16:28:17.297Z,83.33
2023-11-20T16:30:49.960Z,83.40
2023-11-20T16:33:18.085Z,83.46
2023-11-20T16:35:46.027Z,83.25
2023-11-20T16:38:14.741Z,83.41
2023-11-20T16:40:49.461Z,83.60
2023-11-20T16:43:18.683Z,83.70
2023-11-20T16:45:50.273Z,83.71
2023-11-20T16:48:18.993Z,83.59
2023-11-20T16:50:55.302Z,83.67
2023-11-20T16:53:23.840Z,83.42
2023-11-20T16:56:03.616Z,83.61
2023-11-20T16:58:34.051Z,83.58
2023-11-20T17:01:04.057Z,83.45
2023-11-20T17:03:34.839Z,83.48
2023-11-20T17:06:05.976Z,83.40
2023-11-20T17:08:36.706Z,83.34
2023-11-20T17:11:05.748Z,83.22
2023-11-20T17:13:33.959Z,83.17
2023-11-20T17:16:02.528Z,83.25
2023-11-20T17:18:30.821Z,83.31
2023-11-20T17:20:59.185Z,83.12
2023-11-20T17:23:27.301Z,83.19
2023-11-20T17:25:55.284Z,82.92
2023-11-20T17:28:23.602Z,82.49
2023-11-20T17:30:51.704Z,82.58
2023-11-20T17:33:20.315Z,82.75
2023-11-20T17:35:48.495Z,82.98
2023-11-20T17:38:16.613Z,82.90
2023-11-20T17:40:44.947Z,82.78
2023-11-20T17:43:13.682Z,82.77
2023-11-20T17:45:43.410Z,82.84
2023-11-20T17:48:14.384Z,82.89
2023-11-20T17:50:42.478Z,82.87
2023-11-20T17:53:10.890Z,82.89
2023-11-20T17:55:40.040Z,82.91
2023-11-20T17:58:08.398Z,82.95
2023-11-20T18:00:36.825Z,82.95
2023-11-20T18:03:08.139Z,82.95
2023-11-20T18:05:41.834Z,82.91
2023-11-20T18:08:30.024Z,82.63
2023-11-20T18:10:58.148Z,82.20
2023-11-20T18:13:26.323Z,82.67
2023-11-20T18:16:10.936Z,82.63
2023-11-20T18:18:39.138Z,82.37
2023-11-20T18:21:08.417Z,82.46
2023-11-20T18:23:36.684Z,81.93
2023-11-20T18:26:05.836Z,81.68
2023-11-20T18:28:34.733Z,82.02
2023-11-20T18:31:04.737Z,82.14
2023-11-20T18:33:34.363Z,82.03
2023-11-20T18:36:04.566Z,81.90
2023-11-20T18:38:32.666Z,81.82
2023-11-20T18:41:01.444Z,81.63
2023-11-20T18:43:30.678Z,81.79
2023-11-20T18:45:59.437Z,81.94
2023-11-20T18:48:28.272Z,81.92
2023-11-20T18:50:57.003Z,82.15
2023-11-20T18:53:25.048Z,82.00
2023-11-20T18:55:53.362Z,81.84
2023-11-20T18:58:22.223Z,81.84
2023-11-20T19:00:50.383Z,82.02
2023-11-20T19:03:18.656Z,81.81
2023-11-20T19:05:46.812Z,81.49
2023-11-20T19:08:18.013Z,80.48
2023-11-20T19:10:48.530Z,80.47
2023-11-20T19:13:16.768Z,80.63
2023-11-20T19:15:44.964Z,81.18
2023-11-20T19:18:14.562Z,81.46
2023-11-20T19:20:43.022Z,81.31
2023-11-20T19:23:12.343Z,81.30
2023-11-20T19:25:41.009Z,81.47
2023-11-20T19:28:09.512Z,81.44
2023-11-20T19:30:39.915Z,81.29
2023-11-20T19:33:11.352Z,81.37
2023-11-20T19:35:41.326Z,81.33
2023-11-20T19:38:13.628Z,81.20
2023-11-20T19:40:42.032Z,81.02
2023-11-20T19:43:10.511Z,80.86
2023-11-20T19:45:39.240Z,81.18
2023-11-20T19:48:07.556Z,81.06
2023-11-20T19:50:36.431Z,80.92
2023-11-20T19:53:07.441Z,81.18
2023-11-20T19:55:35.512Z,81.06
2023-11-20T19:58:04.941Z,81.17
2023-11-20T20:00:33.944Z,81.09
2023-11-20T20:03:02.106Z,81.32
2023-11-20T20:05:30.431Z,81.47
2023-11-20T20:08:00.323Z,81.39
2023-11-20T20:10:29.325Z,81.00
2023-11-20T20:12:57.729Z,80.59
2023-11-20T20:15:26.139Z,80.67
2023-11-20T20:17:59.087Z,80.45
2023-11-20T20:20:30.874Z,80.43
2023-11-20T20:23:01.568Z,80.33
2023-11-20T20:25:31.142Z,80.39
2023-11-20T20:27:59.643Z,80.36
2023-11-20T20:30:29.511Z,80.62
2023-11-20T20:32:57.944Z,80.55
2023-11-20T20:35:28.747Z,80.22
2023-11-20T20:37:56.781Z,79.88
2023-11-20T20:40:28.829Z,80.15
2023-11-20T20:43:01.209Z,80.52
2023-11-20T20:45:30.161Z,80.21
2023-11-20T20:47:58.577Z,80.10
2023-11-20T20:50:27.296Z,79.82
2023-11-20T20:52:55.274Z,80.03
2023-11-20T20:55:23.397Z,79.89
2023-11-20T20:57:54.088Z,79.84
2023-11-20T21:00:22.513Z,80.14
2023-11-20T21:02:51.447Z,80.15
2023-11-20T21:05:19.786Z,79.85
2023-11-20T21:07:47.930Z,79.49
2023-11-20T21:10:17.941Z,79.99
2023-11-20T21:12:46.074Z,79.89
2023-11-20T21:15:15.769Z,79.77
2023-11-20T21:17:46.235Z,78.77
2023-11-20T21:20:15.934Z,79.17
2023-11-20T21:22:45.943Z,78.91
2023-11-20T21:25:14.486Z,78.95
2023-11-20T21:27:44.049Z,79.55
2023-11-20T21:30:13.223Z,78.55
2023-11-20T21:32:42.629Z,78.38
2023-11-20T21:35:11.691Z,78.75
2023-11-20T21:37:39.923Z,78.07
2023-11-20T21:40:11.045Z,77.79
2023-11-20T21:42:39.327Z,77.13
2023-11-20T21:45:08.250Z,77.34
2023-11-20T21:47:36.554Z,77.33
2023-11-20T21:50:06.063Z,77.27
2023-11-20T21:52:34.499Z,77.73
2023-11-20T21:55:03.384Z,78.08
2023-11-20T21:57:31.492Z,77.28
2023-11-20T21:59:59.433Z,77.10
2023-11-20T22:02:27.414Z,77.05
2023-11-20T22:04:55.526Z,76.74
2023-11-20T22:07:24.257Z,76.70
2023-11-20T22:09:52.847Z,76.40
2023-11-20T22:12:20.972Z,75.91
2023-11-20T22:14:48.992Z,75.95
2023-11-20T22:17:16.926Z,76.18
2023-11-20T22:19:45.000Z,76.03
2023-11-20T22:22:15.726Z,75.90
2023-11-20T22:24:43.949Z,75.96
2023-11-20T22:27:12.725Z,76.14
2023-11-20T22:29:41.926Z,75.94
2023-11-20T22:32:10.042Z,76.09
2023-11-20T22:34:38.034Z,75.84
2023-11-20T22:37:06.101Z,75.02
2023-11-20T22:39:34.381Z,74.36
2023-11-20T22:42:02.326Z,74.76
2023-11-20T22:44:30.299Z,74.74
2023-11-20T22:46:58.287Z,74.35
2023-11-20T22:49:26.417Z,74.44
2023-11-20T22:51:54.397Z,74.17
2023-11-20T22:54:24.276Z,74.04
2023-11-20T22:56:52.321Z,74.29
2023-11-20T22:59:20.524Z,74.39
2023-11-20T23:01:48.544Z,74.12
2023-11-20T23:04:17.140Z,74.41
2023-11-20T23:06:45.397Z,74.35
2023-11-20T23:09:16.933Z,74.24
2023-11-20T23:11:45.034Z,74.28
2023-11-20T23:14:13.012Z,74.37
2023-11-20T23:16:41.036Z,74.40
2023-11-20T23:19:09.075Z,74.31
2023-11-20T23:21:37.079Z,74.53
2023-11-20T23:24:06.250Z,74.54
2023-11-20T23:26:34.869Z,74.42
2023-11-20T23:29:05.637Z,74.26
2023-11-20T23:31:37.984Z,74.33
2023-11-20T23:34:06.327Z,74.24
2023-11-20T23:36:34.557Z,74.05
2023-11-20T23:39:02.671Z,74.01
2023-11-20T23:41:30.596Z,74.18
2023-11-20T23:43:58.537Z,73.95
2023-11-20T23:46:28.471Z,72.96
2023-11-20T23:48:58.188Z,73.28
2023-11-20T23:51:26.526Z,73.39
2023-11-20T23:53:54.489Z,73.07
2023-11-20T23:56:22.503Z,72.51
2023-11-20T23:58:51.122Z,72.88
